• Join FlightAware (Why Join?)
  • Login
  • US Flag 
05:31AM EST


 

Airport Tracker/Info


-or-


 

Live Flight TrackerFlight Track Log ✈ UAL4528 ✈ 14-Apr-2013 ✈ KIND - KIAH

Flight Track Log - Related Links

Times and Time Zones

All times are in EDT time to prevent confusion due to time zone crossing. See the UAL4528 flight status page for this flight to view local times or setup timezone preferences in your user account.

Time Position Orientation Groundspeed Altitude Reporting Facility
EDT Latitude Longitude Course Direction KTS MPH feet Rate Location/Type
02:51PM 39.7000 -86.3000 201° Southwest 165 190 1,400  Level Indianapolis TRACON
02:51PM 39.6833 -86.3333 237° Southwest 165 190 2,400 1,800 Climbing Indianapolis TRACON
02:53PM 39.6167 -86.3667 201° Southwest 224 258 4,500 1,980 Climbing Indianapolis TRACON
02:54PM 39.4520 -86.4250 204° Southwest  Level FlightAware Approximate
02:54PM 39.5486 -86.4036 203° Southwest 231 266 7,300  Level Indianapolis Center
02:55PM 39.3639 -86.4754 204° Southwest  Level FlightAware Approximate
02:55PM 39.4858 -86.4369 202° Southwest 238 274 9,100  Level Indianapolis Center
02:56PM 39.2744 -86.5212 201° Southwest  Level FlightAware Approximate
02:56PM 39.4192 -86.4722 202° Southwest 248 285 10,600  Level Indianapolis Center
02:57PM 39.3417 -86.5128 202° Southwest 276 318 11,400 1,080 Climbing Indianapolis Center
02:58PM 39.2569 -86.5553 201° Southwest 305 351 12,900 1,500 Climbing Indianapolis Center
02:59PM 39.1553 -86.6061 201° Southwest 319 367 14,500 1,140 Climbing Indianapolis Center
03:00PM 39.0694 -86.6544 204° Southwest 327 376 15,300 900 Climbing Indianapolis Center
03:01PM 38.9806 -86.7094 206° Southwest 340 391 16,400 960 Climbing Indianapolis Center
03:02PM 38.8900 -86.7636 205° Southwest 354 407 17,400 960 Climbing Indianapolis Center
03:03PM 38.7983 -86.8181 205° Southwest 359 413 18,500 1,020 Climbing Indianapolis Center
03:04PM 38.7067 -86.8733 205° Southwest 362 417 19,600 1,020 Climbing Indianapolis Center
03:05PM 38.6139 -86.9281 205° Southwest 364 419 20,700 1,080 Climbing Indianapolis Center
03:06PM 38.5044 -87.0017 208° Southwest 372 428 21,900 1,080 Climbing Indianapolis Center
03:07PM 38.4336 -87.0942 226° Southwest 368 423 23,000 1,020 Climbing Indianapolis Center
03:08PM 38.3653 -87.1861 227° Southwest 367 422 24,100 1,140 Climbing Indianapolis Center
03:09PM 38.2964 -87.2769 226° Southwest 364 419 25,400 1,080 Climbing Indianapolis Center
03:10PM 38.2131 -87.3878 226° Southwest 362 417 26,400 960 Climbing Indianapolis Center
03:11PM 38.1425 -87.4808 226° Southwest 365 420 27,500 1,020 Climbing Indianapolis Center
03:12PM 38.0736 -87.5714 226° Southwest 358 412 28,600 1,080 Climbing Indianapolis Center
03:13PM 38.0069 -87.6572 225° Southwest 347 399 29,800 1,080 Climbing Indianapolis Center
03:14PM 37.9436 -87.7425 227° Southwest 335 386 30,900 1,080 Climbing Indianapolis Center
03:16PM 37.8628 -87.7942 207° Southwest 329 379 32,100 1,140 Climbing Indianapolis Center
03:17PM 37.7783 -87.8347 201° Southwest 325 374 33,300 900 Climbing Indianapolis Center
03:18PM 37.6886 -87.8772 201° Southwest 320 368 34,000 300 Climbing Indianapolis Center
03:19PM 37.6006 -87.9189 201° Southwest 332 382 34,000  Level Indianapolis Center
03:20PM 37.4919 -87.9717 201° Southwest 353 406 34,000 480 Level Indianapolis Center
03:21PM 37.4122 -88.0372 213° Southwest 338 389 35,000 900 Climbing Indianapolis Center
03:22PM 37.3325 -88.1214 220° Southwest 342 394 36,000 420 Climbing Memphis Center
03:23PM 37.2608 -88.1911 218° Southwest 331 381 36,000  Level Memphis Center
03:24PM 37.1911 -88.2583 218° Southwest 331 381 36,000  Level Memphis Center
03:25PM 37.1214 -88.3250 217° Southwest 326 375 36,000  Level Memphis Center
03:26PM 37.0539 -88.3919 218° Southwest 319 367 36,000  Level Memphis Center
03:27PM 36.9819 -88.4586 217° Southwest 324 373 36,000  Level Memphis Center
03:28PM 36.9100 -88.5250 216° Southwest 324 373 36,000  Level Memphis Center
03:29PM 36.8361 -88.5994 219° Southwest 334 384 36,000  Level Memphis Center
03:30PM 36.7600 -88.6683 216° Southwest 340 391 36,000  Level Memphis Center
03:31PM 36.6836 -88.7397 217° Southwest 340 391 36,000  Level Memphis Center
03:32PM 36.6094 -88.8086 217° Southwest 340 391 36,000  Level Memphis Center
03:33PM 36.5333 -88.8797 217° Southwest 340 391 36,000  Level Memphis Center
03:34PM 36.4550 -88.9533 217° Southwest 340 391 36,000  Level Memphis Center
03:35PM 36.3869 -89.0139 216° Southwest 340 391 36,000  Level Memphis Center
03:36PM 36.3083 -89.0872 217° Southwest 340 391 36,000  Level Memphis Center
03:37PM 36.2300 -89.1606 217° Southwest 350 403 36,000  Level Memphis Center
03:38PM 36.1514 -89.2336 217° Southwest 356 410 36,000  Level Memphis Center
03:39PM 36.0750 -89.3092 219° Southwest 362 417 36,000  Level Memphis Center
03:40PM 35.9922 -89.3847 216° Southwest 362 417 36,000  Level Memphis Center
03:41PM 35.9092 -89.4625 217° Southwest 367 422 36,000  Level Memphis Center
03:42PM 35.8286 -89.5378 217° Southwest 367 422 36,000  Level Memphis Center
03:43PM 35.7433 -89.6128 216° Southwest 367 422 36,000  Level Memphis Center
03:44PM 35.6667 -89.6875 218° Southwest 367 422 36,000  Level Memphis Center
03:45PM 35.5836 -89.7622 216° Southwest 361 415 36,000  Level Memphis Center
03:46PM 35.5028 -89.8394 218° Southwest 368 423 36,000  Level Memphis Center
03:47PM 35.4217 -89.9164 218° Southwest 373 429 36,000  Level Memphis Center
03:48PM 35.3386 -89.9906 216° Southwest 373 429 36,000  Level Memphis Center
03:49PM 35.2553 -90.0697 218° Southwest 373 429 36,000  Level Memphis Center
03:50PM 35.1719 -90.1436 216° Southwest 378 435 36,000  Level Memphis Center
03:51PM 35.0886 -90.2225 218° Southwest 383 441 36,000  Level Memphis Center
03:52PM 35.0031 -90.2964 215° Southwest 383 441 36,000  Level Memphis Center
03:53PM 34.9178 -90.3722 216° Southwest 383 441 36,000  Level Memphis Center
03:54PM 34.8258 -90.4558 217° Southwest 383 441 36,000  Level Memphis Center
03:55PM 34.7403 -90.5314 216° Southwest 383 441 36,000  Level Memphis Center
03:56PM 34.6525 -90.6094 216° Southwest 393 452 36,000  Level Memphis Center
03:57PM 34.5689 -90.6875 218° Southwest 393 452 36,000  Level Memphis Center
03:58PM 34.5039 -90.7931 233° Southwest 389 448 36,000  Level Memphis Center
03:59PM 34.4408 -90.9011 235° Southwest 396 456 36,000  Level Memphis Center
04:00PM 34.3756 -91.0089 234° Southwest 406 467 36,000  Level Memphis Center
04:01PM 34.3103 -91.1192 234° Southwest 406 467 36,000  Level Memphis Center
04:02PM 34.2450 -91.2264 234° Southwest 406 467 36,000  Level Memphis Center
04:03PM 34.1794 -91.3339 234° Southwest 406 467 36,000  Level Memphis Center
04:04PM 34.1181 -91.4386 235° Southwest 401 461 36,000  Level Memphis Center
04:05PM 34.0589 -91.5281 231° Southwest 401 461 36,000  Level Memphis Center
04:06PM 33.9972 -91.6325 235° Southwest 390 449 36,000  Level Memphis Center
04:07PM 33.9356 -91.7392 235° Southwest 390 449 36,000  Level Memphis Center
04:09PM 33.8064 -91.9544 234° Southwest 394 453 36,000  Level Fort Worth Center
04:10PM 33.7356 -92.0586 231° Southwest 404 465 36,000  Level Fort Worth Center
04:11PM 33.6628 -92.1581 229° Southwest 404 465 36,000  Level Fort Worth Center
04:12PM 33.5561 -92.2017 199° South 390 449 36,000  Level Fort Worth Center
04:13PM 33.4447 -92.2358 194° South 396 456 36,000  Level Fort Worth Center
04:14PM 33.3478 -92.2639 194° South 408 470 36,000  Level Fort Worth Center
04:15PM 33.2322 -92.2978 194° South 419 482 36,000  Level Fort Worth Center
04:16PM 33.1128 -92.3319 193° South 431 496 36,000  Level Fort Worth Center
04:17PM 32.9994 -92.3706 196° South 431 496 36,000  Level Fort Worth Center
04:18PM 32.8900 -92.4017 193° South 424 488 36,000  Level Fort Worth Center
04:20PM 32.6525 -92.4750 195° South 424 488 36,000  Level Houston Center
04:21PM 32.5406 -92.5089 194° South 425 489 36,000  Level Houston Center
04:22PM 32.4003 -92.5494 194° South 432 497 36,000  Level Houston Center
04:23PM 32.2839 -92.5867 195° South 432 497 36,000  Level Houston Center
04:24PM 32.1672 -92.6167 192° South 434 499 36,000  Level Houston Center
04:25PM 32.0500 -92.6503 194° South 434 499 36,000  Level Houston Center
04:26PM 31.9419 -92.7008 202° Southwest 424 488 36,000  Level Houston Center
04:27PM 31.8547 -92.7878 220° Southwest 411 473 36,000  Level Houston Center
04:28PM 31.7517 -92.8900 220° Southwest 407 468 36,000  Level Houston Center
04:29PM 31.6642 -92.9731 219° Southwest 404 465 36,000  Level Houston Center
04:30PM 31.5800 -93.0589 221° Southwest 401 461 36,000  Level Houston Center
04:31PM 31.4928 -93.1411 219° Southwest 403 464 36,000  Level Houston Center
04:32PM 31.4078 -93.2239 220° Southwest 398 458 36,000  Level Houston Center
04:33PM 31.3075 -93.3178 219° Southwest 396 456 36,000 -120 Level Houston Center
04:34PM 31.2211 -93.4011 220° Southwest 393 452 35,800 -720 Descending Houston Center
04:35PM 31.1350 -93.4825 219° Southwest 399 459 34,600 -1,200 Descending Houston Center
04:36PM 31.0478 -93.5644 219° Southwest 403 464 33,400 -1,260 Descending Houston Center
04:37PM 30.9561 -93.6522 219° Southwest 423 487 32,000 -1,560 Descending Houston Center
04:38PM 30.8386 -93.7625 219° Southwest 452 520 30,200 -1,920 Descending Houston Center
04:40PM 30.7389 -93.8569 219° Southwest 462 532 28,000 -2,640 Descending Houston Center
04:41PM 30.6428 -93.9475 219° Southwest 455 524 24,800 -2,940 Descending Houston Center
04:42PM 30.5514 -94.0336 219° Southwest 436 502 22,000 -2,760 Descending Houston Center
04:43PM 30.4636 -94.1161 219° Southwest 416 479 19,100 -3,180 Descending Houston Center
04:43PM 30.3944 -94.1811 219° Southwest 393 452 16,600 -3,540 Descending Houston Center
04:44PM 30.3622 -94.2103 218° Southwest 394 453 15,500 -2,640 Descending Houston Center
04:45PM 30.2850 -94.2822 219° Southwest 364 419 13,000 -2,340 Descending Houston Center
04:45PM 30.2633 -94.3003 216° Southwest 340 391 12,500 -1,080 Descending Houston Center
04:46PM 30.2164 -94.3475 221° Southwest 325 374 11,900 -540 Descending Houston Center
04:46PM 30.1975 -94.3767 233° Southwest 311 358 12,000 -300 Climbing Houston Center
04:47PM 30.1856 -94.4411 258° West 319 367 11,600 -960 Descending Houston Center
04:48PM 30.1661 -94.5481 258° West 314 361 10,300 -1,200 Descending Houston Center
04:48PM 30.1589 -94.5847 257° West 312 359 10,000 -300 Descending Houston Center
04:49PM 30.1492 -94.6458 260° West 313 360 10,000  Level Houston Center
04:49PM 30.1433 -94.6836 260° West 305 351 10,000 -240 Level Houston Center
04:50PM 30.1344 -94.7386 259° West 298 343 9,800 -900 Descending Houston Center
04:50PM 30.1269 -94.7750 257° West 252 290 9,100 -1,680 Descending Houston Center
04:51PM 30.1200 -94.8183 260° West 261 300 8,100 -1,740 Descending Houston Center
04:52PM 30.1039 -94.9128 259° West 253 291 6,100 -1,620 Descending Houston Center
04:52PM 30.1061 -94.9322 278° West 245 282 6,000 -120 Descending Houston Center
04:53PM 30.1058 -94.9889 270° West 241 277 6,000  Level Houston Center
04:53PM 30.1058 -95.0169 270° West 244 281 6,000  Level Houston Center
04:54PM 30.1064 -95.0692 271° West 248 285 6,000  Level Houston Center
04:55PM 30.1075 -95.1500 271° West 252 290 6,000  Level Houston Center
04:55PM 30.1058 -95.1764 266° West 252 290 6,000  Level Houston Center
04:56PM 30.1078 -95.2306 272° West 252 290 6,000  Level Houston Center
04:57PM 30.1072 -95.3258 270° West 251 289 6,000 -540 Level Houston Center
04:58PM 30.1078 -95.4056 270° West 250 288 5,000 -1,320 Descending Houston Center
04:59PM 30.0939 -95.4786 258° West 252 290 3,300 -1,080 Descending Houston Center
05:00PM 30.0408 -95.4686 171° South 227 261 2,800 -540 Descending Houston Center